CheckWX is a tool to help pilots better visualize weather data.  It is not intended as a substitute for an official pre-flight weather briefing.

17:08:54 UTC

KALM METAR
Alamogordo-White Sands Regional Airport
Alamogordo, New Mexico, USA
Current

34 mins ago

KALM 211635Z AUTO 17005KT 10SM CLR 33/08 A3005 RMK AO2
Observed
Jul-21 @ 16:35 UTC
Wind
  • 170° at 5 KTS
Visibility
10 SM
Flight Rules
VFR
Cloud Levels
  • Clear skies
Temperature
33°C / 91°F
Dewpoint
C / 46°F
Humidity
21%
Altimeter
30.05" Hg
Pressure
1017.62 hPa
Previous

54 mins ago

KALM 211615Z AUTO 21006KT 10SM CLR 32/08 A3005 RMK AO2
Observed
Jul-21 @ 16:15 UTC
Wind
  • 210° at 6 KTS
Visibility
10 SM
Flight Rules
VFR
Cloud Levels
  • Clear skies
Temperature
32°C / 90°F
Dewpoint
C / 46°F
Humidity
22%
Altimeter
30.05" Hg
Pressure
1017.62 hPa
Previous

1 hour ago

KALM 211555Z AUTO 22005KT 10SM CLR 32/08 A3005 RMK AO2
Observed
Jul-21 @ 15:55 UTC
Wind
  • 220° at 5 KTS
Visibility
10 SM
Flight Rules
VFR
Cloud Levels
  • Clear skies
Temperature
32°C / 90°F
Dewpoint
C / 46°F
Humidity
22%
Altimeter
30.05" Hg
Pressure
1017.62 hPa